CheckWX is a tool to help pilots better visualize weather data.  It is not intended as a substitute for an official pre-flight weather briefing.

19:32:36 UTC

EGHH METAR
Bournemouth Airport
Bournemouth, United Kingdom
Current

43 mins ago

EGHH 191850Z 21006KT 9999 FEW024 SCT046 08/06 Q1019
Observed
Feb-19 @ 18:50 UTC
Wind
  • 210° at 6 KTS
Visibility
10,000+ meters
Flight Rules
VFR
Cloud Levels
  • Few at 2,400' AGL
  • Scattered at 4,600' AGL
Temperature
C / 46°F
Dewpoint
C / 43°F
Humidity
87%
Altimeter
30.09" Hg
Pressure
1018.92 hPa
Previous

1 hour ago

EGHH 191820Z 22007KT 9999 FEW024 BKN046 08/06 Q1019
Observed
Feb-19 @ 18:20 UTC
Wind
  • 220° at 7 KTS
Visibility
10,000+ meters
Flight Rules
VFR
Cloud Levels
  • Few at 2,400' AGL
  • Broken at 4,600' AGL
Temperature
C / 46°F
Dewpoint
C / 43°F
Humidity
87%
Altimeter
30.09" Hg
Pressure
1018.92 hPa
Previous

2 hours ago

EGHH 191750Z 21007KT 9999 FEW016 08/06 Q1019
Observed
Feb-19 @ 17:50 UTC
Wind
  • 210° at 7 KTS
Visibility
10,000+ meters
Flight Rules
VFR
Cloud Levels
  • Few at 1,600' AGL
Temperature
C / 46°F
Dewpoint
C / 43°F
Humidity
87%
Altimeter
30.09" Hg
Pressure
1018.92 hPa